createdAt,value
2022-09-30T00:01:54.305Z,65.10
2022-09-30T00:04:24.119Z,65.13
2022-09-30T00:06:52.573Z,66.22
2022-09-30T00:09:20.077Z,66.09
2022-09-30T00:11:48.002Z,66.06
2022-09-30T00:14:20.879Z,67.26
2022-09-30T00:16:49.182Z,69.19
2022-09-30T00:19:16.840Z,67.60
2022-09-30T00:21:44.314Z,65.92
2022-09-30T00:24:12.106Z,65.45
2022-09-30T00:26:39.974Z,65.21
2022-09-30T00:29:07.443Z,65.10
2022-09-30T00:31:35.792Z,64.95
2022-09-30T00:34:07.645Z,65.19
2022-09-30T00:36:38.750Z,65.31
2022-09-30T00:39:08.153Z,65.09
2022-09-30T00:41:36.251Z,65.10
2022-09-30T00:44:43.204Z,65.51
2022-09-30T00:47:40.114Z,66.28
2022-09-30T00:50:17.077Z,66.04
2022-09-30T00:52:48.612Z,65.43
2022-09-30T00:55:27.375Z,65.18
2022-09-30T00:57:55.854Z,64.98
2022-09-30T01:00:23.259Z,64.80
2022-09-30T01:02:50.809Z,64.67
2022-09-30T01:05:18.522Z,64.53
2022-09-30T01:07:47.140Z,64.44
2022-09-30T01:10:14.568Z,64.33
2022-09-30T01:12:42.287Z,64.22
2022-09-30T01:15:10.206Z,64.27
2022-09-30T01:17:40.752Z,64.17
2022-09-30T01:20:35.932Z,64.05
2022-09-30T01:23:15.511Z,64.38
2022-09-30T01:25:54.441Z,64.15
2022-09-30T01:28:30.878Z,64.15
2022-09-30T01:31:22.905Z,64.66
2022-09-30T01:33:53.251Z,64.16
2022-09-30T01:36:28.792Z,64.10
2022-09-30T01:39:14.943Z,66.26
2022-09-30T01:41:44.801Z,66.09
2022-09-30T01:44:22.563Z,65.35
2022-09-30T01:46:57.596Z,65.44
2022-09-30T01:49:32.915Z,65.88
2022-09-30T01:52:09.623Z,67.02
2022-09-30T01:55:09.015Z,67.08
2022-09-30T01:57:46.724Z,67.98
2022-09-30T02:00:15.263Z,67.33
2022-09-30T02:02:50.437Z,67.02
2022-09-30T02:05:29.729Z,67.30
2022-09-30T02:08:29.286Z,68.23
2022-09-30T02:11:19.715Z,69.39
2022-09-30T02:13:55.561Z,68.48
2022-09-30T02:16:32.419Z,68.21
2022-09-30T02:19:11.291Z,67.88
2022-09-30T02:21:40.624Z,67.22
2022-09-30T02:24:10.820Z,67.49
2022-09-30T02:26:41.368Z,67.91
2022-09-30T02:29:15.757Z,67.07
2022-09-30T02:31:45.307Z,67.13
2022-09-30T02:34:22.385Z,67.60
2022-09-30T02:37:06.169Z,69.13
2022-09-30T02:39:42.989Z,71.09
2022-09-30T02:42:28.583Z,69.33
2022-09-30T02:45:00.904Z,68.08
2022-09-30T02:47:35.665Z,67.97
2022-09-30T02:50:16.491Z,67.53
2022-09-30T02:53:00.366Z,67.02
2022-09-30T02:55:35.443Z,66.81
2022-09-30T02:58:14.533Z,66.50
2022-09-30T03:00:42.334Z,66.29
2022-09-30T03:03:21.976Z,66.37
2022-09-30T03:05:50.970Z,65.94
2022-09-30T03:08:18.591Z,65.98
2022-09-30T03:10:47.584Z,65.54
2022-09-30T03:13:34.068Z,65.54
2022-09-30T03:16:21.607Z,65.29
2022-09-30T03:19:01.315Z,65.57
2022-09-30T03:21:39.382Z,65.31
2022-09-30T03:24:13.153Z,65.44
2022-09-30T03:27:09.465Z,65.36
2022-09-30T03:30:03.199Z,65.45
2022-09-30T03:32:52.014Z,64.93
2022-09-30T03:35:22.539Z,65.30
2022-09-30T03:38:05.512Z,65.28
2022-09-30T03:41:07.226Z,66.43
2022-09-30T03:44:04.273Z,68.33
2022-09-30T03:46:38.441Z,70.48
2022-09-30T03:49:10.590Z,71.33
2022-09-30T03:51:38.839Z,72.54
2022-09-30T03:54:11.313Z,72.96
2022-09-30T03:56:42.468Z,72.14
2022-09-30T03:59:20.591Z,72.65
2022-09-30T04:01:48.310Z,72.24
2022-09-30T04:04:16.017Z,72.97
2022-09-30T04:06:43.839Z,72.22
2022-09-30T04:09:11.437Z,71.46
2022-09-30T04:11:39.185Z,71.39
2022-09-30T04:14:06.611Z,71.18
2022-09-30T04:16:34.363Z,71.14
2022-09-30T04:19:02.172Z,70.28
2022-09-30T04:21:29.738Z,69.94
2022-09-30T04:23:57.254Z,69.28
2022-09-30T04:26:24.944Z,69.22
2022-09-30T04:28:52.564Z,68.44
2022-09-30T04:31:21.273Z,69.05
2022-09-30T04:33:49.221Z,68.49
2022-09-30T04:36:16.700Z,68.45
2022-09-30T04:38:44.165Z,68.01
2022-09-30T04:41:16.210Z,67.68
2022-09-30T04:43:46.388Z,67.36
2022-09-30T04:46:19.709Z,67.90
2022-09-30T04:48:47.630Z,67.43
2022-09-30T04:51:18.094Z,67.29
2022-09-30T04:53:46.220Z,67.40
2022-09-30T04:56:14.346Z,67.10
2022-09-30T04:58:42.498Z,67.31
2022-09-30T05:01:15.621Z,67.65
2022-09-30T05:03:43.572Z,67.84
2022-09-30T05:06:11.951Z,68.70
2022-09-30T05:08:44.683Z,68.96
2022-09-30T05:11:17.491Z,68.02
2022-09-30T05:13:45.713Z,68.48
2022-09-30T05:16:13.986Z,68.69
2022-09-30T05:18:45.562Z,68.40
2022-09-30T05:21:15.165Z,69.13
2022-09-30T05:23:42.960Z,70.14
2022-09-30T05:26:12.528Z,70.53
2022-09-30T05:28:41.777Z,69.88
2022-09-30T05:31:10.173Z,69.77
2022-09-30T05:33:37.698Z,69.63
2022-09-30T05:36:07.118Z,68.98
2022-09-30T05:38:35.306Z,68.95
2022-09-30T05:41:08.444Z,70.68
2022-09-30T05:43:38.199Z,70.67
2022-09-30T05:46:05.877Z,73.52
2022-09-30T05:48:34.723Z,72.00
2022-09-30T05:51:02.678Z,71.31
2022-09-30T05:53:32.223Z,70.66
2022-09-30T05:56:00.376Z,71.99
2022-09-30T05:58:28.094Z,72.11
2022-09-30T06:00:55.583Z,71.97
2022-09-30T06:03:23.447Z,71.96
2022-09-30T06:05:56.638Z,71.68
2022-09-30T06:08:24.890Z,71.93
2022-09-30T06:10:52.774Z,71.83
2022-09-30T06:13:21.496Z,72.90
2022-09-30T06:15:57.288Z,71.66
2022-09-30T06:18:26.087Z,71.64
2022-09-30T06:21:03.203Z,71.34
2022-09-30T06:23:34.131Z,71.02
2022-09-30T06:26:04.100Z,70.58
2022-09-30T06:28:35.208Z,69.96
2022-09-30T06:31:03.939Z,69.73
2022-09-30T06:33:32.102Z,68.93
2022-09-30T06:36:04.231Z,69.25
2022-09-30T06:38:32.997Z,68.40
2022-09-30T06:41:01.062Z,68.32
2022-09-30T06:43:28.873Z,68.37
2022-09-30T06:46:11.128Z,68.37
2022-09-30T06:48:41.310Z,68.02
2022-09-30T06:51:10.877Z,67.94
2022-09-30T06:53:39.836Z,67.77
2022-09-30T06:56:07.308Z,67.97
2022-09-30T06:58:35.393Z,67.78
2022-09-30T07:01:05.093Z,67.61
2022-09-30T07:03:34.658Z,67.53
2022-09-30T07:06:04.889Z,67.58
2022-09-30T07:08:34.005Z,67.57
2022-09-30T07:11:04.485Z,67.37
2022-09-30T07:13:33.228Z,67.23
2022-09-30T07:16:00.816Z,67.29
2022-09-30T07:18:28.835Z,67.33
2022-09-30T07:20:56.780Z,67.62
2022-09-30T07:23:27.593Z,67.12
2022-09-30T07:25:57.549Z,67.12
2022-09-30T07:28:32.031Z,67.59
2022-09-30T07:31:30.610Z,66.99
2022-09-30T07:33:52.770Z,67.31
2022-09-30T07:36:31.841Z,66.99
2022-09-30T07:39:06.157Z,67.22
2022-09-30T07:41:36.055Z,67.05
2022-09-30T07:44:06.464Z,66.68
2022-09-30T07:46:38.715Z,67.33
2022-09-30T07:49:08.936Z,66.67
2022-09-30T07:51:40.177Z,66.86
2022-09-30T07:54:10.858Z,67.54
2022-09-30T07:59:29.013Z,70.40
2022-09-30T08:01:56.916Z,68.99
2022-09-30T08:04:25.913Z,70.43
2022-09-30T08:06:59.171Z,70.50
2022-09-30T08:09:28.936Z,69.13
2022-09-30T08:11:56.722Z,69.25
2022-09-30T08:14:26.667Z,69.79
2022-09-30T08:16:56.574Z,72.14
2022-09-30T08:19:25.737Z,72.72
2022-09-30T08:21:54.246Z,72.45
2022-09-30T08:24:23.454Z,73.72
2022-09-30T08:26:51.735Z,74.07
2022-09-30T08:32:07.695Z,77.51
2022-09-30T08:34:35.831Z,78.12
2022-09-30T08:37:08.921Z,76.58
2022-09-30T08:39:38.277Z,78.72
2022-09-30T08:42:49.088Z,77.37
2022-09-30T08:46:02.666Z,77.84
2022-09-30T08:48:42.229Z,79.42
2022-09-30T08:51:24.866Z,79.85
2022-09-30T08:53:52.580Z,80.97
2022-09-30T08:56:24.125Z,80.94
2022-09-30T08:58:55.643Z,79.90
2022-09-30T09:01:31.183Z,78.78
2022-09-30T09:03:58.982Z,77.32
2022-09-30T09:06:30.833Z,79.15
2022-09-30T09:09:16.518Z,81.95
2022-09-30T09:11:49.396Z,82.45
2022-09-30T09:14:53.127Z,79.42
2022-09-30T09:17:37.867Z,79.26
2022-09-30T09:20:14.499Z,79.69
2022-09-30T09:22:44.154Z,77.86
2022-09-30T09:25:20.356Z,77.84
2022-09-30T09:28:33.793Z,76.43
2022-09-30T09:31:01.689Z,77.19
2022-09-30T09:33:39.528Z,79.55
2022-09-30T09:36:36.448Z,77.81
2022-09-30T09:39:16.670Z,79.28
2022-09-30T09:41:56.692Z,79.75
2022-09-30T09:44:43.012Z,79.89
2022-09-30T09:47:17.030Z,80.28
2022-09-30T09:49:46.676Z,78.49
2022-09-30T09:52:23.911Z,80.68
2022-09-30T09:54:56.520Z,80.48
2022-09-30T09:57:32.392Z,80.39
2022-09-30T10:00:44.014Z,80.51
2022-09-30T10:03:24.819Z,76.15
2022-09-30T10:06:09.170Z,77.29
2022-09-30T10:08:53.569Z,75.11
2022-09-30T10:11:23.514Z,74.28
2022-09-30T10:13:53.812Z,73.52
2022-09-30T10:16:37.095Z,74.93
2022-09-30T10:19:20.362Z,75.36
2022-09-30T10:21:47.908Z,76.72
2022-09-30T10:24:33.947Z,76.32
2022-09-30T10:27:01.646Z,76.62
2022-09-30T10:29:35.046Z,76.16
2022-09-30T10:32:04.735Z,76.68
2022-09-30T10:34:39.258Z,75.81
2022-09-30T10:37:13.843Z,74.66
2022-09-30T10:39:43.849Z,74.17
2022-09-30T10:42:27.263Z,72.76
2022-09-30T10:44:56.631Z,71.92
2022-09-30T10:47:31.391Z,73.42
2022-09-30T10:50:09.287Z,74.47
2022-09-30T10:52:40.556Z,74.57
2022-09-30T10:55:29.233Z,72.40
2022-09-30T10:58:01.355Z,73.65
2022-09-30T11:00:29.903Z,72.14
2022-09-30T11:03:24.576Z,71.88
2022-09-30T11:05:52.310Z,70.38
2022-09-30T11:08:44.274Z,71.57
2022-09-30T11:11:15.309Z,69.95
2022-09-30T11:14:13.849Z,69.84
2022-09-30T11:16:49.805Z,70.26
2022-09-30T11:19:41.470Z,69.23
2022-09-30T11:22:49.774Z,68.72
2022-09-30T11:25:29.370Z,69.17
2022-09-30T11:28:20.228Z,68.87
2022-09-30T11:31:08.450Z,69.11
2022-09-30T11:33:55.627Z,69.63
2022-09-30T11:36:58.689Z,67.23
2022-09-30T11:40:05.181Z,66.23
2022-09-30T11:42:55.505Z,66.10
2022-09-30T11:45:54.274Z,69.54
2022-09-30T11:48:32.499Z,67.23
2022-09-30T11:51:22.958Z,68.22
2022-09-30T11:54:04.441Z,65.95
2022-09-30T11:56:44.375Z,66.21
2022-09-30T11:59:19.986Z,65.80
2022-09-30T12:01:50.827Z,65.59
2022-09-30T12:04:30.188Z,66.09
2022-09-30T12:07:30.421Z,67.41
2022-09-30T12:10:01.827Z,69.19
2022-09-30T12:12:29.372Z,67.56
2022-09-30T12:15:05.896Z,66.64
2022-09-30T12:17:45.609Z,65.12
2022-09-30T12:20:34.260Z,66.80
2022-09-30T12:23:17.793Z,67.83
2022-09-30T12:25:57.438Z,64.75
2022-09-30T12:29:10.807Z,67.69
2022-09-30T12:32:09.669Z,65.59
2022-09-30T12:34:44.531Z,65.54
2022-09-30T12:37:38.962Z,63.59
2022-09-30T12:40:17.279Z,62.98
2022-09-30T12:42:51.797Z,63.78
2022-09-30T12:45:37.795Z,64.85
2022-09-30T12:48:18.142Z,64.93
2022-09-30T12:50:52.915Z,64.90
2022-09-30T12:53:31.798Z,62.95
2022-09-30T12:56:14.556Z,65.44
2022-09-30T12:58:44.290Z,64.25
2022-09-30T13:01:15.815Z,65.86
2022-09-30T13:03:51.447Z,66.03
2022-09-30T13:06:21.364Z,64.63
2022-09-30T13:08:57.637Z,65.00
2022-09-30T13:11:48.409Z,64.67
2022-09-30T13:14:39.631Z,67.25
2022-09-30T13:17:07.236Z,67.40
2022-09-30T13:19:45.778Z,65.21
2022-09-30T13:22:29.739Z,66.02
2022-09-30T13:25:06.744Z,67.21
2022-09-30T13:27:51.632Z,66.21
2022-09-30T13:30:19.005Z,67.86
2022-09-30T13:32:50.857Z,67.92
2022-09-30T13:35:37.765Z,65.39
2022-09-30T13:38:14.715Z,64.97
2022-09-30T13:41:07.270Z,63.25
2022-09-30T13:43:42.938Z,63.87
2022-09-30T13:46:23.103Z,63.21
2022-09-30T13:49:10.088Z,63.21
2022-09-30T13:51:40.286Z,63.18
2022-09-30T13:54:23.316Z,63.70
2022-09-30T13:56:51.039Z,64.32
2022-09-30T13:59:31.599Z,63.56
2022-09-30T14:02:02.046Z,63.14
2022-09-30T14:04:41.637Z,61.97
2022-09-30T14:07:38.377Z,62.84
2022-09-30T14:10:21.378Z,63.37
2022-09-30T14:13:02.753Z,62.28
2022-09-30T14:15:57.335Z,61.56
2022-09-30T14:18:40.078Z,60.71
2022-09-30T14:21:38.804Z,60.96
2022-09-30T14:24:16.195Z,60.48
2022-09-30T14:26:48.883Z,60.05
2022-09-30T14:29:16.267Z,59.32
2022-09-30T14:31:48.564Z,58.63
2022-09-30T14:34:17.981Z,58.60
2022-09-30T14:39:31.315Z,58.49
2022-09-30T14:42:02.062Z,57.87
2022-09-30T14:44:36.270Z,58.04
2022-09-30T14:47:04.875Z,57.94
2022-09-30T14:49:36.061Z,58.61
2022-09-30T14:52:04.834Z,60.06
2022-09-30T14:54:33.307Z,58.51
2022-09-30T14:57:03.011Z,58.45
2022-09-30T14:59:35.229Z,58.89
2022-09-30T15:02:13.054Z,58.66
2022-09-30T15:04:47.130Z,58.73
2022-09-30T15:07:14.699Z,57.91
2022-09-30T15:09:46.091Z,57.94
2022-09-30T15:12:17.670Z,57.83
2022-09-30T15:14:56.719Z,57.98
2022-09-30T15:17:27.793Z,58.15
2022-09-30T15:19:57.080Z,58.24
2022-09-30T15:22:27.007Z,59.05
2022-09-30T15:24:55.690Z,58.31
2022-09-30T15:27:30.082Z,58.49
2022-09-30T15:30:02.585Z,58.81
2022-09-30T15:32:34.703Z,58.54
2022-09-30T15:35:15.382Z,58.24
2022-09-30T15:37:43.600Z,58.12
2022-09-30T15:40:41.528Z,58.31
2022-09-30T15:43:11.319Z,58.36
2022-09-30T15:45:41.469Z,58.58
2022-09-30T15:48:25.738Z,58.65
2022-09-30T15:50:58.443Z,59.31
2022-09-30T15:53:31.352Z,59.13
2022-09-30T15:56:00.674Z,59.72
2022-09-30T15:58:39.289Z,59.46
2022-09-30T16:01:21.692Z,59.37
2022-09-30T16:04:10.127Z,59.70
2022-09-30T16:06:40.553Z,59.39
2022-09-30T16:09:18.102Z,59.31
2022-09-30T16:11:53.940Z,59.71
2022-09-30T16:14:23.890Z,59.33
2022-09-30T16:16:55.932Z,59.68
2022-09-30T16:19:26.965Z,59.34
2022-09-30T16:21:55.308Z,59.13
2022-09-30T16:24:27.316Z,59.22
2022-09-30T16:26:57.031Z,59.41
2022-09-30T16:29:26.422Z,59.35
2022-09-30T16:31:56.534Z,59.33
2022-09-30T16:34:25.571Z,59.57
2022-09-30T16:36:54.907Z,59.80
2022-09-30T16:39:22.356Z,60.23
2022-09-30T16:41:51.361Z,60.19
2022-09-30T16:44:18.900Z,60.19
2022-09-30T16:46:46.457Z,60.25
2022-09-30T16:49:15.801Z,60.14
2022-09-30T16:51:43.505Z,59.99
2022-09-30T16:54:12.254Z,59.75
2022-09-30T16:56:39.997Z,59.75
2022-09-30T16:59:13.419Z,60.40
2022-09-30T17:01:41.569Z,60.20
2022-09-30T17:04:12.913Z,60.12
2022-09-30T17:06:43.071Z,60.04
2022-09-30T17:09:10.612Z,60.33
2022-09-30T17:11:38.308Z,60.12
2022-09-30T17:14:06.235Z,60.64
2022-09-30T17:16:34.457Z,60.71
2022-09-30T17:19:02.147Z,60.87
2022-09-30T17:21:30.092Z,60.70
2022-09-30T17:23:58.910Z,60.74
2022-09-30T17:26:26.494Z,60.77
2022-09-30T17:29:00.295Z,60.93
2022-09-30T17:31:36.506Z,60.93
2022-09-30T17:34:08.066Z,61.09
2022-09-30T17:36:36.579Z,60.99
2022-09-30T17:39:05.331Z,61.17
2022-09-30T17:41:51.509Z,61.16
2022-09-30T17:44:19.348Z,61.40
2022-09-30T17:46:46.910Z,61.43
2022-09-30T17:49:20.719Z,61.38
2022-09-30T17:51:51.799Z,61.34
2022-09-30T17:54:19.273Z,61.53
2022-09-30T17:56:47.747Z,61.52
2022-09-30T17:59:15.530Z,61.58
2022-09-30T18:01:43.176Z,61.75
2022-09-30T18:04:11.158Z,61.63
2022-09-30T18:06:38.669Z,61.40
2022-09-30T18:09:06.178Z,61.12
2022-09-30T18:11:37.094Z,61.11
2022-09-30T18:14:06.965Z,61.18
2022-09-30T18:16:34.980Z,60.88
2022-09-30T18:19:05.027Z,61.00
2022-09-30T18:21:34.219Z,61.02
2022-09-30T18:24:03.017Z,61.21
2022-09-30T18:26:33.402Z,61.24
2022-09-30T18:29:05.322Z,61.26
2022-09-30T18:31:37.964Z,61.33
2022-09-30T18:34:07.065Z,61.11
2022-09-30T18:36:35.370Z,61.29
2022-09-30T18:39:03.002Z,61.15
2022-09-30T18:41:32.606Z,61.13
2022-09-30T18:44:02.828Z,61.56
2022-09-30T18:46:31.472Z,61.62
2022-09-30T18:48:59.067Z,61.45
2022-09-30T18:51:26.584Z,61.34
2022-09-30T18:53:58.879Z,61.24
2022-09-30T18:56:32.287Z,61.38
2022-09-30T18:59:01.242Z,61.37
2022-09-30T19:01:28.843Z,61.49
2022-09-30T19:03:56.501Z,61.71
2022-09-30T19:06:24.335Z,62.26
2022-09-30T19:08:51.775Z,62.07
2022-09-30T19:11:19.279Z,62.05
2022-09-30T19:13:48.065Z,61.91
2022-09-30T19:16:18.375Z,61.91
2022-09-30T19:18:46.452Z,61.91
2022-09-30T19:21:16.349Z,62.56
2022-09-30T19:23:43.884Z,63.51
2022-09-30T19:26:12.886Z,65.09
2022-09-30T19:28:40.709Z,64.01
2022-09-30T19:31:10.498Z,62.93
2022-09-30T19:33:43.697Z,62.79
2022-09-30T19:36:17.214Z,62.49
2022-09-30T19:38:46.283Z,62.17
2022-09-30T19:41:15.863Z,62.22
2022-09-30T19:43:45.536Z,62.74
2022-09-30T19:46:13.168Z,63.08
2022-09-30T19:48:42.020Z,62.46
2022-09-30T19:51:14.248Z,62.00
2022-09-30T19:53:46.282Z,61.70
2022-09-30T19:56:17.626Z,62.13
2022-09-30T19:58:53.287Z,61.60
2022-09-30T20:01:24.546Z,62.09
2022-09-30T20:03:53.927Z,61.87
2022-09-30T20:06:24.997Z,61.82
2022-09-30T20:08:57.175Z,61.69
2022-09-30T20:11:26.117Z,61.51
2022-09-30T20:14:15.004Z,62.15
2022-09-30T20:16:43.801Z,61.82
2022-09-30T20:19:11.896Z,61.60
2022-09-30T20:21:41.896Z,61.69
2022-09-30T20:24:11.052Z,61.81
2022-09-30T20:26:39.602Z,61.90
2022-09-30T20:29:10.407Z,62.12
2022-09-30T20:31:42.751Z,62.55
2022-09-30T20:34:15.538Z,62.73
2022-09-30T20:36:43.461Z,62.51
2022-09-30T20:39:11.841Z,62.76
2022-09-30T20:41:39.785Z,63.05
2022-09-30T20:44:16.143Z,63.02
2022-09-30T20:46:44.020Z,62.86
2022-09-30T20:49:11.532Z,62.80
2022-09-30T20:51:39.100Z,62.84
2022-09-30T20:54:06.853Z,63.04
2022-09-30T20:56:49.992Z,63.15
2022-09-30T20:59:23.229Z,62.78
2022-09-30T21:01:51.216Z,62.62
2022-09-30T21:04:18.679Z,62.79
2022-09-30T21:06:47.721Z,62.74
2022-09-30T21:09:15.671Z,62.64
2022-09-30T21:11:43.129Z,62.66
2022-09-30T21:14:11.213Z,62.81
2022-09-30T21:16:38.726Z,62.72
2022-09-30T21:19:06.278Z,63.52
2022-09-30T21:21:34.654Z,63.32
2022-09-30T21:24:02.530Z,63.09
2022-09-30T21:26:30.133Z,63.29
2022-09-30T21:28:57.994Z,63.21
2022-09-30T21:31:27.492Z,63.02
2022-09-30T21:33:58.222Z,62.91
2022-09-30T21:36:27.374Z,63.03
2022-09-30T21:38:55.027Z,63.96
2022-09-30T21:41:22.887Z,64.25
2022-09-30T21:43:50.628Z,63.58
2022-09-30T21:46:18.760Z,63.21
2022-09-30T21:48:46.427Z,64.23
2022-09-30T21:51:14.158Z,63.98
2022-09-30T21:53:41.884Z,63.66
2022-09-30T21:56:11.853Z,63.83
2022-09-30T21:58:39.689Z,64.62
2022-09-30T22:01:07.482Z,64.36
2022-09-30T22:03:37.951Z,63.69
2022-09-30T22:06:08.032Z,63.73
2022-09-30T22:08:40.225Z,63.63
2022-09-30T22:11:14.946Z,63.58
2022-09-30T22:13:44.223Z,63.62
2022-09-30T22:16:12.341Z,63.88
2022-09-30T22:18:39.961Z,64.27
2022-09-30T22:21:10.089Z,63.99
2022-09-30T22:23:37.981Z,63.78
2022-09-30T22:26:10.433Z,63.47
2022-09-30T22:28:39.102Z,63.48
2022-09-30T22:31:11.142Z,63.43
2022-09-30T22:33:57.554Z,63.33
2022-09-30T22:36:43.963Z,63.50
2022-09-30T22:39:11.963Z,63.63
2022-09-30T22:41:39.451Z,63.57
2022-09-30T22:44:07.011Z,63.52
2022-09-30T22:46:36.273Z,63.83
2022-09-30T22:49:04.568Z,63.62
2022-09-30T22:51:35.011Z,63.82
2022-09-30T22:54:03.546Z,63.89
2022-09-30T22:56:31.301Z,64.53
2022-09-30T22:58:59.577Z,64.08
2022-09-30T23:01:29.406Z,64.00
2022-09-30T23:03:57.042Z,64.01
2022-09-30T23:06:25.152Z,63.89
2022-09-30T23:08:54.457Z,63.85
2022-09-30T23:11:23.373Z,63.80
2022-09-30T23:13:53.507Z,63.60
2022-09-30T23:16:24.654Z,63.67
2022-09-30T23:18:52.147Z,63.86
2022-09-30T23:21:20.109Z,64.10
2022-09-30T23:23:51.284Z,64.09
2022-09-30T23:26:26.638Z,65.45
2022-09-30T23:28:59.021Z,65.34
2022-09-30T23:31:27.240Z,65.42
2022-09-30T23:33:56.958Z,66.27
2022-09-30T23:36:30.013Z,65.95
2022-09-30T23:39:02.808Z,66.04
2022-09-30T23:41:32.123Z,66.18
2022-09-30T23:44:01.242Z,66.04
2022-09-30T23:46:28.841Z,66.58
2022-09-30T23:48:56.391Z,66.50
2022-09-30T23:51:24.341Z,66.86
2022-09-30T23:53:51.805Z,67.64
2022-09-30T23:56:19.714Z,67.42
2022-09-30T23:58:47.882Z,67.84
